Time;durP1;ratioP1;P1;durP2;ratioP2;P2;SDS_P1;SDS_P2;PMS_P1;PMS_P2;Temp;Humidity;BMP_temperature;BMP_pressure;BME280_temperature;BME280_humidity;BME280_pressure;Samples;Min_cycle;Max_cycle;Signal;HPM_P1;HPM_P2
2021/09/14 00:01:12;;;;;;;4.07;2.10;;;15.60;52.20;;;;;;5010876;28;20271;-49
2021/09/14 00:03:43;;;;;;;2.53;1.80;;;15.60;52.10;;;;;;5009801;28;20295;-51
2021/09/14 00:06:13;;;;;;;2.50;1.63;;;15.70;52.20;;;;;;5010122;28;20292;-54
2021/09/14 00:08:44;;;;;;;2.72;1.80;;;15.70;52.10;;;;;;5011226;28;20295;-53
2021/09/14 00:11:16;;;;;;;2.20;1.80;;;15.70;52.20;;;;;;5011154;28;20283;-52
2021/09/14 00:13:46;;;;;;;2.50;1.58;;;15.60;52.10;;;;;;5011342;28;20236;-58
2021/09/14 00:16:17;;;;;;;3.15;1.92;;;15.70;52.10;;;;;;5011164;28;20296;-53
2021/09/14 00:18:47;;;;;;;3.33;1.67;;;15.70;52.10;;;;;;5011420;28;20626;-58
2021/09/14 00:21:18;;;;;;;2.28;1.40;;;15.70;52.10;;;;;;5011491;28;20318;-53
2021/09/14 00:23:48;;;;;;;2.90;1.77;;;15.70;52.10;;;;;;5011573;28;20271;-49
2021/09/14 00:26:20;;;;;;;2.25;1.40;;;15.70;52.00;;;;;;5011499;28;20208;-52
2021/09/14 00:28:51;;;;;;;3.20;1.52;;;15.70;52.00;;;;;;5011600;28;20300;-48
2021/09/14 00:31:21;;;;;;;2.13;1.60;;;15.80;52.10;;;;;;5010954;28;20267;-55
2021/09/14 00:33:52;;;;;;;2.88;1.70;;;15.70;52.00;;;;;;5011054;28;20288;-51
2021/09/14 00:36:22;;;;;;;2.65;1.42;;;15.70;52.00;;;;;;5011259;28;20258;-54
2021/09/14 00:38:53;;;;;;;2.70;1.45;;;15.80;52.10;;;;;;5011186;28;20228;-56
2021/09/14 00:41:25;;;;;;;1.45;1.20;;;15.80;52.10;;;;;;5010965;28;20271;-44
2021/09/14 00:43:59;;;;;;;2.58;1.60;;;15.80;52.10;;;;;;5012577;28;20254;-53
2021/09/14 00:46:29;;;;;;;2.58;1.80;;;15.80;52.10;;;;;;5014654;28;20256;-53
2021/09/14 00:49:00;;;;;;;2.58;1.83;;;15.80;52.40;;;;;;5009279;28;20236;-54
2021/09/14 00:51:30;;;;;;;3.80;1.98;;;15.80;52.70;;;;;;5013312;28;20763;-46
2021/09/14 00:54:01;;;;;;;3.15;1.80;;;15.90;52.80;;;;;;5013829;28;20610;-54
2021/09/14 00:56:33;;;;;;;2.72;1.90;;;15.90;52.80;;;;;;5012334;28;20241;-49
2021/09/14 00:59:04;;;;;;;2.65;1.77;;;15.90;52.80;;;;;;5013963;28;20327;-48
2021/09/14 01:01:35;;;;;;;2.92;1.70;;;15.90;52.70;;;;;;5013218;28;20527;-48
2021/09/14 01:04:06;;;;;;;2.63;1.65;;;16.00;52.80;;;;;;5013868;28;20299;-51
2021/09/14 01:06:36;;;;;;;3.63;2.00;;;16.00;52.80;;;;;;5012621;28;20248;-50
2021/09/14 01:09:07;;;;;;;2.78;1.77;;;16.00;52.80;;;;;;5014077;28;20295;-53
2021/09/14 01:11:39;;;;;;;2.95;1.67;;;16.00;52.70;;;;;;5014060;28;20318;-51
2021/09/14 01:14:10;;;;;;;2.65;1.58;;;16.00;52.60;;;;;;5013383;28;20244;-48
2021/09/14 01:16:41;;;;;;;2.60;1.63;;;16.10;52.60;;;;;;5013605;28;20248;-49
2021/09/14 01:19:12;;;;;;;2.00;1.70;;;16.10;52.60;;;;;;4996234;28;20261;-50
2021/09/14 01:21:42;;;;;;;2.00;1.58;;;16.10;52.60;;;;;;4994834;28;20265;-48
2021/09/14 01:24:14;;;;;;;1.98;1.33;;;16.10;52.50;;;;;;4994184;28;20237;-47
2021/09/14 01:26:45;;;;;;;2.88;1.55;;;16.20;52.50;;;;;;4994388;28;20657;-47
2021/09/14 01:30:12;;;;;;;2.90;1.88;;;16.10;52.40;;;;;;4994106;28;20285;-52
2021/09/14 01:32:09;;;;;;;2.55;1.65;;;16.10;52.40;;;;;;4993182;28;20252;-49
2021/09/14 01:34:39;;;;;;;2.40;1.52;;;16.20;52.40;;;;;;4994592;28;20658;-50
2021/09/14 01:37:10;;;;;;;2.75;1.98;;;16.20;53.00;;;;;;4993233;28;20301;-49
2021/09/14 01:39:42;;;;;;;2.47;1.50;;;16.20;52.40;;;;;;5004592;28;20256;-50
2021/09/14 01:42:12;;;;;;;2.75;1.40;;;16.20;52.40;;;;;;5012480;28;20260;-46
2021/09/14 01:44:43;;;;;;;2.85;1.80;;;16.20;52.40;;;;;;5012944;28;20208;-55
2021/09/14 01:47:13;;;;;;;2.90;1.90;;;16.20;52.40;;;;;;5013463;28;20546;-47
2021/09/14 01:49:44;;;;;;;3.05;1.70;;;16.20;52.30;;;;;;5013520;28;20307;-53
2021/09/14 01:52:14;;;;;;;2.03;1.63;;;16.20;52.30;;;;;;5011199;28;20260;-51
2021/09/14 01:54:48;;;;;;;2.97;1.60;;;16.20;52.30;;;;;;5011393;28;20197;-52
2021/09/14 01:57:22;;;;;;;1.70;1.48;;;16.20;52.30;;;;;;5012990;28;20295;-50
2021/09/14 01:59:55;;;;;;;3.58;1.58;;;16.30;52.30;;;;;;5012886;28;20790;-55
2021/09/14 02:02:36;;;;;;;2.53;1.60;;;16.30;52.20;;;;;;5009959;28;20232;-53
2021/09/14 02:05:10;;;;;;;3.60;1.90;;;16.30;52.20;;;;;;5012737;28;20208;-50
2021/09/14 02:29:57;;;;;;;3.47;1.92;;;16.40;52.10;;;;;;5004199;28;20357;-57
2021/09/14 02:33:45;;;;;;;3.83;1.80;;;16.40;52.10;;;;;;5011839;28;20207;-55
2021/09/14 02:39:04;;;;;;;1.90;1.63;;;16.40;52.00;;;;;;5012017;28;20228;-56
2021/09/14 02:44:45;;;;;;;2.25;1.50;;;16.40;52.00;;;;;;5167122;27;20294;-48
2021/09/14 02:58:44;;;;;;;2.65;1.90;;;16.40;52.00;;;;;;5105877;28;20266;-51
2021/09/14 03:01:15;;;;;;;3.40;1.67;;;16.40;52.00;;;;;;5113524;27;20633;-51
2021/09/14 03:03:45;;;;;;;2.55;1.58;;;16.50;52.50;;;;;;5109922;28;20252;-54
2021/09/14 03:06:15;;;;;;;3.33;1.60;;;16.50;52.90;;;;;;5106968;28;20197;-50
2021/09/14 03:08:45;;;;;;;1.50;1.30;;;16.50;52.90;;;;;;5106201;28;20241;-48
2021/09/14 03:11:16;;;;;;;1.67;1.50;;;16.50;52.80;;;;;;5110937;28;20308;-53
2021/09/14 03:13:46;;;;;;;1.52;1.42;;;16.50;52.70;;;;;;5099818;28;20205;-50
2021/09/14 03:16:17;;;;;;;3.17;1.40;;;16.60;52.80;;;;;;5106275;28;20297;-50
2021/09/14 03:18:47;;;;;;;2.80;1.50;;;16.60;52.70;;;;;;5105826;28;20237;-53
2021/09/14 03:21:17;;;;;;;2.20;1.50;;;16.60;52.60;;;;;;5105234;28;20746;-54
2021/09/14 03:23:46;;;;;;;2.22;1.40;;;16.70;52.70;;;;;;5105974;28;20706;-54
2021/09/14 03:26:16;;;;;;;2.95;1.35;;;16.70;52.70;;;;;;5104889;28;20253;-48
2021/09/14 03:28:46;;;;;;;2.88;1.70;;;16.70;52.60;;;;;;5106401;28;20294;-45
2021/09/14 03:31:17;;;;;;;1.42;1.20;;;16.70;52.90;;;;;;5101622;28;20301;-51
2021/09/14 03:33:47;;;;;;;1.65;1.42;;;16.70;52.60;;;;;;5106019;28;20205;-53
2021/09/14 03:36:17;;;;;;;2.45;1.70;;;16.80;52.70;;;;;;5105616;28;20205;-54
2021/09/14 03:38:47;;;;;;;2.22;1.60;;;16.80;52.60;;;;;;5105498;28;20194;-48
2021/09/14 03:41:16;;;;;;;3.47;1.50;;;16.80;52.60;;;;;;5110264;27;20224;-53
2021/09/14 03:43:46;;;;;;;2.25;1.60;;;16.90;52.60;;;;;;5111027;28;20309;-51
2021/09/14 03:46:17;;;;;;;2.22;1.42;;;16.90;52.60;;;;;;5105578;28;20257;-53
2021/09/14 03:48:47;;;;;;;3.70;1.70;;;16.90;52.50;;;;;;5105183;28;20197;-53
2021/09/14 03:51:17;;;;;;;2.10;1.60;;;17.00;52.60;;;;;;5104730;28;20709;-50
2021/09/14 03:53:46;;;;;;;2.05;1.50;;;17.00;52.50;;;;;;5100521;28;20245;-50
2021/09/14 03:56:16;;;;;;;1.98;1.55;;;17.00;52.50;;;;;;5092760;28;20668;-47
2021/09/14 03:58:46;;;;;;;1.83;1.30;;;17.10;52.40;;;;;;5091181;28;20242;-48
2021/09/14 04:01:17;;;;;;;2.20;1.40;;;17.10;52.40;;;;;;5091245;28;20253;-54
2021/09/14 04:03:55;;;;;;;1.85;1.27;;;17.10;52.30;;;;;;5076832;28;20258;-51
2021/09/14 04:06:39;;;;;;;1.80;1.45;;;17.20;52.40;;;;;;5087004;28;20669;-53
2021/09/14 04:09:10;;;;;;;1.80;1.50;;;17.20;52.40;;;;;;5091010;28;20209;-56
2021/09/14 04:11:40;;;;;;;1.75;1.13;;;17.20;52.30;;;;;;5098799;28;20263;-51
2021/09/14 04:14:09;;;;;;;1.52;1.40;;;17.30;52.30;;;;;;5093341;28;20237;-52
2021/09/14 04:16:40;;;;;;;1.73;1.50;;;17.30;52.30;;;;;;5091735;28;20309;-49
2021/09/14 04:19:10;;;;;;;2.17;1.50;;;17.30;52.30;;;;;;5088422;28;20240;-56
2021/09/14 04:21:40;;;;;;;1.77;1.25;;;17.40;52.30;;;;;;5091092;28;20610;-53
2021/09/14 04:24:10;;;;;;;2.03;1.40;;;17.40;52.30;;;;;;5090736;28;20265;-48
2021/09/14 04:26:39;;;;;;;2.33;1.38;;;17.50;52.20;;;;;;5092112;28;20249;-51
2021/09/14 04:29:09;;;;;;;2.35;1.50;;;17.50;52.20;;;;;;5091703;28;20480;-51
2021/09/14 04:31:40;;;;;;;2.17;1.38;;;17.50;52.10;;;;;;5091944;28;20218;-57
2021/09/14 04:34:10;;;;;;;2.50;1.40;;;17.60;52.10;;;;;;5091580;28;20673;-48
2021/09/14 04:36:40;;;;;;;1.88;1.40;;;17.60;52.00;;;;;;5091862;28;20241;-49
2021/09/14 04:39:09;;;;;;;1.75;1.42;;;17.60;51.90;;;;;;5092175;28;20631;-50
2021/09/14 04:41:39;;;;;;;1.40;1.30;;;17.60;51.90;;;;;;5092373;28;20257;-51
2021/09/14 04:44:09;;;;;;;2.78;1.80;;;17.60;51.90;;;;;;5091061;28;20268;-52
2021/09/14 04:46:40;;;;;;;1.67;1.10;;;17.60;51.80;;;;;;5090411;28;20678;-54
2021/09/14 04:49:09;;;;;;;2.15;1.35;;;17.60;51.70;;;;;;5090453;28;20291;-48
2021/09/14 04:51:39;;;;;;;2.03;1.60;;;17.60;51.70;;;;;;5089725;28;20764;-54
2021/09/14 04:54:09;;;;;;;1.45;1.33;;;17.60;51.70;;;;;;5091536;28;20294;-45
2021/09/14 04:56:39;;;;;;;2.15;1.48;;;17.60;51.70;;;;;;5091373;28;20234;-57
2021/09/14 04:59:09;;;;;;;2.33;1.60;;;17.60;51.70;;;;;;5099079;28;20256;-55
2021/09/14 05:01:39;;;;;;;1.60;1.27;;;17.60;51.70;;;;;;5110457;28;20221;-54
2021/09/14 05:04:09;;;;;;;2.30;1.33;;;17.60;51.60;;;;;;5111130;28;20284;-51
2021/09/14 05:06:39;;;;;;;1.50;1.10;;;17.60;51.70;;;;;;5109410;28;20241;-45
2021/09/14 05:09:09;;;;;;;3.13;1.63;;;17.60;51.70;;;;;;5070219;28;20253;-49
2021/09/14 05:11:38;;;;;;;1.88;1.38;;;17.60;51.80;;;;;;5085604;28;20264;-46
2021/09/14 05:14:08;;;;;;;2.47;1.40;;;17.60;51.80;;;;;;5110078;28;20228;-46
2021/09/14 05:16:38;;;;;;;4.03;1.50;;;17.70;51.80;;;;;;5111821;28;20243;-46
2021/09/14 05:19:10;;;;;;;2.00;1.30;;;17.60;51.70;;;;;;5070521;28;20666;-45
2021/09/14 05:21:45;;;;;;;4.07;1.65;;;17.60;51.70;;;;;;5070726;28;20245;-45
2021/09/14 05:24:15;;;;;;;2.63;1.70;;;17.60;51.60;;;;;;5071145;28;20218;-48
2021/09/14 05:26:45;;;;;;;2.35;1.40;;;17.60;51.60;;;;;;5070672;28;20303;-47
2021/09/14 05:29:15;;;;;;;2.95;1.75;;;17.60;51.50;;;;;;5090797;28;20257;-47
2021/09/14 05:31:45;;;;;;;2.90;1.63;;;17.60;51.50;;;;;;5089502;28;20364;-53
2021/09/14 05:34:16;;;;;;;2.05;1.33;;;17.60;51.50;;;;;;5089995;28;20230;-55
2021/09/14 05:36:46;;;;;;;2.55;1.90;;;17.60;51.40;;;;;;5091286;28;20256;-48
2021/09/14 05:39:15;;;;;;;3.40;1.80;;;17.60;51.40;;;;;;5091112;28;20271;-53
2021/09/14 05:41:45;;;;;;;2.58;1.83;;;17.60;51.50;;;;;;5091751;28;20734;-49
2021/09/14 05:44:15;;;;;;;3.70;1.77;;;17.50;51.50;;;;;;5108655;28;20220;-51
2021/09/14 05:46:45;;;;;;;4.38;2.10;;;17.50;51.50;;;;;;5089247;28;20206;-52
2021/09/14 05:49:16;;;;;;;2.42;1.90;;;17.50;51.50;;;;;;5090831;28;20669;-56
2021/09/14 05:51:45;;;;;;;3.65;1.63;;;17.50;51.40;;;;;;5090073;28;20261;-47
2021/09/14 05:54:15;;;;;;;2.25;1.65;;;17.50;51.50;;;;;;5091137;28;20549;-51
2021/09/14 05:56:45;;;;;;;3.45;1.98;;;17.50;51.50;;;;;;5089954;28;20267;-52
2021/09/14 05:59:15;;;;;;;3.65;1.90;;;17.50;51.50;;;;;;5090820;28;20560;-54
2021/09/14 06:01:44;;;;;;;2.03;1.83;;;17.50;51.50;;;;;;5088897;28;20257;-53
2021/09/14 06:04:15;;;;;;;2.78;1.70;;;17.50;51.50;;;;;;5088896;28;20713;-49
2021/09/14 06:06:45;;;;;;;2.50;1.83;;;17.50;51.40;;;;;;5089255;28;20233;-47
2021/09/14 06:09:15;;;;;;;2.85;1.75;;;17.50;51.40;;;;;;5090239;28;20697;-50
2021/09/14 06:11:45;;;;;;;2.60;1.92;;;17.40;51.30;;;;;;5098794;28;20262;-57
2021/09/14 06:14:14;;;;;;;3.72;1.75;;;17.40;51.40;;;;;;5109903;28;20676;-56
2021/09/14 06:16:44;;;;;;;2.92;2.10;;;17.40;51.30;;;;;;5110343;28;20247;-56
2021/09/14 06:19:14;;;;;;;2.30;2.10;;;17.40;51.30;;;;;;5109816;28;20262;-50
2021/09/14 06:21:45;;;;;;;3.03;1.90;;;17.40;51.30;;;;;;5097440;28;20225;-51
2021/09/14 06:24:15;;;;;;;3.58;2.10;;;17.40;51.40;;;;;;5088864;28;20264;-45
2021/09/14 06:26:44;;;;;;;3.42;2.38;;;17.30;51.30;;;;;;5078445;28;20685;-49
2021/09/14 06:29:14;;;;;;;2.17;1.75;;;17.30;51.30;;;;;;5089820;28;20355;-51
2021/09/14 06:31:44;;;;;;;3.22;1.90;;;17.30;51.30;;;;;;5089311;28;20257;-48
2021/09/14 06:34:14;;;;;;;2.42;1.98;;;17.30;51.30;;;;;;5089859;28;20210;-49
2021/09/14 06:36:44;;;;;;;2.92;1.90;;;17.20;51.20;;;;;;5088968;28;20352;-51
2021/09/14 06:39:14;;;;;;;3.10;2.00;;;17.30;51.30;;;;;;5090096;28;20306;-54
2021/09/14 06:41:44;;;;;;;4.20;2.20;;;17.30;51.30;;;;;;5097126;28;20221;-57
2021/09/14 06:44:14;;;;;;;2.42;2.03;;;17.30;51.30;;;;;;5109890;28;20221;-51
2021/09/14 06:46:44;;;;;;;4.25;2.38;;;17.20;51.20;;;;;;5109089;28;20224;-51
2021/09/14 06:49:13;;;;;;;3.50;2.10;;;17.20;51.30;;;;;;5109896;28;20244;-53
2021/09/14 06:51:43;;;;;;;4.38;3.10;;;17.20;51.20;;;;;;5096803;28;20280;-53
2021/09/14 06:54:14;;;;;;;3.17;2.42;;;17.20;51.20;;;;;;5089075;28;20233;-49
2021/09/14 06:56:44;;;;;;;5.38;2.67;;;17.10;51.30;;;;;;5090396;28;20241;-48
2021/09/14 06:59:13;;;;;;;4.70;3.03;;;17.10;51.30;;;;;;5088646;28;20689;-51
2021/09/14 07:01:43;;;;;;;2.88;2.55;;;17.10;51.30;;;;;;5089006;28;20358;-54
2021/09/14 07:04:14;;;;;;;4.55;3.08;;;17.10;51.30;;;;;;5088731;28;20280;-57
2021/09/14 07:06:46;;;;;;;4.20;3.40;;;17.10;51.30;;;;;;5089087;28;20572;-52
2021/09/14 07:09:17;;;;;;;3.45;2.95;;;17.10;51.30;;;;;;5089037;28;20209;-53
2021/09/14 07:11:47;;;;;;;3.65;2.88;;;17.00;51.30;;;;;;5097137;28;20308;-46
2021/09/14 07:14:16;;;;;;;3.80;3.15;;;17.00;51.30;;;;;;5108858;28;20655;-52
2021/09/14 07:16:46;;;;;;;4.80;3.05;;;17.00;51.30;;;;;;5109685;28;20254;-46
2021/09/14 07:19:16;;;;;;;3.83;2.92;;;17.00;51.30;;;;;;5108918;28;20200;-49
2021/09/14 07:21:46;;;;;;;5.30;3.08;;;17.00;51.30;;;;;;5090126;28;20706;-51
2021/09/14 07:24:17;;;;;;;3.45;2.50;;;17.00;51.30;;;;;;5085990;28;20301;-48
2021/09/14 07:26:46;;;;;;;3.67;3.17;;;16.90;51.30;;;;;;5080753;28;20292;-49
2021/09/14 07:29:16;;;;;;;7.38;3.22;;;16.90;51.30;;;;;;5089811;28;20576;-56
2021/09/14 07:31:48;;;;;;;4.82;3.03;;;16.90;51.30;;;;;;5093126;28;20283;-53
2021/09/14 07:34:17;;;;;;;3.72;3.00;;;16.90;51.30;;;;;;5093042;28;20239;-56
2021/09/14 07:36:47;;;;;;;3.45;2.95;;;16.80;51.20;;;;;;5092818;28;20202;-54
2021/09/14 07:39:18;;;;;;;4.32;3.55;;;16.80;51.30;;;;;;5092500;28;20256;-55
2021/09/14 07:41:48;;;;;;;5.75;3.58;;;16.80;51.30;;;;;;5101166;28;20217;-51
2021/09/14 07:44:18;;;;;;;5.57;3.17;;;16.80;51.50;;;;;;5103102;28;20217;-52
2021/09/14 07:46:47;;;;;;;5.07;3.10;;;16.70;51.60;;;;;;5092521;28;20237;-48
2021/09/14 07:49:17;;;;;;;9.40;3.28;;;16.70;51.50;;;;;;5091048;28;20233;-53
2021/09/14 07:51:47;;;;;;;18.05;3.78;;;16.70;51.50;;;;;;5092717;28;20693;-52
2021/09/14 07:54:18;;;;;;;38.38;6.38;;;16.70;51.50;;;;;;5093164;28;20241;-52
2021/09/14 07:56:48;;;;;;;28.30;5.80;;;16.70;51.50;;;;;;5092949;28;20202;-48
2021/09/14 07:59:17;;;;;;;19.23;5.43;;;16.70;51.50;;;;;;5092642;28;20242;-54
2021/09/14 08:01:47;;;;;;;16.65;4.97;;;16.60;51.40;;;;;;5092458;28;20705;-50
2021/09/14 08:04:17;;;;;;;12.32;4.53;;;16.70;51.50;;;;;;5092985;28;20317;-53
2021/09/14 08:06:47;;;;;;;12.93;3.97;;;16.60;51.40;;;;;;5092784;28;20237;-48
2021/09/14 08:09:18;;;;;;;5.85;4.18;;;16.60;51.40;;;;;;5092838;28;20202;-48
2021/09/14 08:11:48;;;;;;;13.75;4.45;;;16.50;51.40;;;;;;5100910;28;20233;-55
2021/09/14 08:14:18;;;;;;;6.97;3.80;;;16.50;51.40;;;;;;5112387;28;20205;-48
2021/09/14 08:16:47;;;;;;;9.13;4.50;;;16.50;51.40;;;;;;5112022;28;20205;-55
2021/09/14 08:19:17;;;;;;;8.98;4.18;;;16.50;51.50;;;;;;5112625;28;20248;-50
2021/09/14 08:21:47;;;;;;;8.77;4.43;;;16.50;51.50;;;;;;5112863;28;20232;-57
2021/09/14 08:24:18;;;;;;;9.70;3.63;;;16.40;51.50;;;;;;5112756;28;20260;-54
2021/09/14 08:26:48;;;;;;;5.65;3.80;;;16.40;51.50;;;;;;5112244;28;20233;-48
2021/09/14 08:29:17;;;;;;;8.18;3.63;;;16.40;51.50;;;;;;5112322;28;20205;-51
2021/09/14 08:31:47;;;;;;;8.93;3.50;;;16.40;51.50;;;;;;5112549;28;20362;-48
2021/09/14 08:34:17;;;;;;;5.28;3.55;;;16.40;51.50;;;;;;5112294;28;20252;-50
2021/09/14 08:36:47;;;;;;;5.85;3.50;;;16.30;51.50;;;;;;5111893;28;20261;-56
2021/09/14 08:39:17;;;;;;;7.75;3.92;;;16.30;51.50;;;;;;5112272;28;20284;-54
2021/09/14 08:41:47;;;;;;;8.05;4.10;;;16.30;51.50;;;;;;5112402;28;20232;-54
2021/09/14 08:44:17;;;;;;;4.03;3.40;;;16.30;51.50;;;;;;5112459;28;20262;-54
2021/09/14 08:46:47;;;;;;;5.43;3.42;;;16.20;51.40;;;;;;5112615;28;20748;-55
2021/09/14 08:49:17;;;;;;;6.55;3.55;;;16.20;51.60;;;;;;5090455;28;20276;-54
2021/09/14 08:51:46;;;;;;;7.63;3.95;;;16.20;51.80;;;;;;5098038;28;20265;-49
2021/09/14 08:54:17;;;;;;;8.30;4.00;;;16.20;51.90;;;;;;5088183;28;20229;-54
2021/09/14 08:56:47;;;;;;;5.65;3.80;;;16.20;51.90;;;;;;5091566;28;20295;-48
2021/09/14 08:59:28;;;;;;;7.43;3.35;;;16.10;51.90;;;;;;5090747;28;20238;-50
2021/09/14 09:02:02;;;;;;;4.88;3.28;;;16.20;52.00;;;;;;5090756;28;20244;-57
2021/09/14 09:04:31;;;;;;;4.55;3.42;;;16.10;51.90;;;;;;5089814;28;20264;-55
2021/09/14 09:07:01;;;;;;;4.78;3.45;;;16.10;51.90;;;;;;5090934;28;20261;-55
2021/09/14 09:09:32;;;;;;;6.00;3.40;;;16.00;51.80;;;;;;5089529;28;20295;-57
2021/09/14 09:12:02;;;;;;;8.35;3.53;;;16.00;51.90;;;;;;5101657;28;20229;-49
2021/09/14 09:14:37;;;;;;;5.13;3.40;;;16.00;51.90;;;;;;5109679;28;20209;-51
2021/09/14 09:17:08;;;;;;;4.53;2.92;;;16.00;51.90;;;;;;5071988;28;20206;-50
2021/09/14 09:19:38;;;;;;;4.65;2.85;;;16.00;51.90;;;;;;5090886;28;20693;-53
2021/09/14 09:22:10;;;;;;;5.40;3.00;;;16.00;51.90;;;;;;5086726;28;20233;-54
2021/09/14 09:24:48;;;;;;;6.10;3.33;;;16.00;51.90;;;;;;5090574;28;20225;-57
2021/09/14 09:27:18;;;;;;;5.47;3.20;;;16.00;51.90;;;;;;5086901;28;20233;-58
2021/09/14 09:29:57;;;;;;;4.03;3.22;;;15.90;51.80;;;;;;5090835;28;20293;-52
2021/09/14 09:32:27;;;;;;;5.25;3.05;;;15.90;51.80;;;;;;5086264;28;20549;-47
2021/09/14 09:35:00;;;;;;;4.20;2.95;;;15.90;51.90;;;;;;5079154;28;20206;-59
2021/09/14 09:37:30;;;;;;;6.13;3.33;;;15.90;51.90;;;;;;5087930;28;20242;-56
2021/09/14 09:40:01;;;;;;;4.93;3.05;;;15.80;51.90;;;;;;5086766;28;20263;-57
2021/09/14 09:42:33;;;;;;;4.15;3.00;;;15.80;51.90;;;;;;5091968;28;20309;-57
2021/09/14 09:45:03;;;;;;;4.82;3.00;;;15.80;51.90;;;;;;5090250;28;20241;-56
2021/09/14 09:47:32;;;;;;;4.45;3.13;;;15.80;51.90;;;;;;5088172;28;20202;-50
2021/09/14 09:50:02;;;;;;;3.80;3.08;;;15.80;51.90;;;;;;5088978;28;20628;-58
2021/09/14 09:52:32;;;;;;;5.53;3.60;;;15.70;51.90;;;;;;5089151;28;20561;-59
2021/09/14 09:55:03;;;;;;;6.03;3.60;;;15.80;51.90;;;;;;5090776;28;20251;-65
2021/09/14 09:57:33;;;;;;;3.67;2.83;;;15.80;51.90;;;;;;5087677;28;20209;-56
2021/09/14 10:00:03;;;;;;;6.20;3.13;;;15.80;52.00;;;;;;5093003;28;20205;-55
2021/09/14 10:02:33;;;;;;;5.13;3.17;;;15.70;51.90;;;;;;5109680;28;20267;-51
2021/09/14 10:05:04;;;;;;;3.30;2.90;;;15.70;51.90;;;;;;5109912;28;20236;-52
2021/09/14 10:07:34;;;;;;;3.85;2.67;;;15.70;51.90;;;;;;5104597;28;20682;-52
2021/09/14 10:10:05;;;;;;;3.80;3.00;;;15.60;51.90;;;;;;5089916;28;20630;-47
2021/09/14 10:12:35;;;;;;;3.92;2.92;;;15.60;52.00;;;;;;5101470;28;20252;-51
2021/09/14 10:15:06;;;;;;;4.32;3.00;;;15.60;52.00;;;;;;5070088;28;20724;-53
2021/09/14 10:17:50;;;;;;;3.65;2.63;;;15.60;52.00;;;;;;5077947;28;20211;-54
2021/09/14 10:20:21;;;;;;;4.03;2.70;;;15.60;52.00;;;;;;5089352;28;20241;-49
2021/09/14 10:23:01;;;;;;;4.53;2.92;;;15.60;52.00;;;;;;5089711;28;20289;-52
2021/09/14 10:25:32;;;;;;;3.22;2.92;;;15.50;52.00;;;;;;5089478;28;20229;-50
2021/09/14 10:28:09;;;;;;;3.55;3.05;;;15.50;52.00;;;;;;5086605;28;20466;-50
2021/09/14 10:30:39;;;;;;;3.42;2.85;;;15.50;52.00;;;;;;5069409;28;20214;-51
2021/09/14 10:33:19;;;;;;;3.35;2.63;;;15.60;52.00;;;;;;5072868;28;20658;-56
2021/09/14 10:35:49;;;;;;;4.85;2.90;;;15.50;52.00;;;;;;5069410;28;20227;-55
2021/09/14 10:38:19;;;;;;;4.45;3.35;;;15.50;52.00;;;;;;5080840;28;20234;-51
2021/09/14 10:40:50;;;;;;;5.03;2.95;;;15.50;52.00;;;;;;5103681;28;20425;-56
2021/09/14 10:43:26;;;;;;;4.18;2.50;;;15.50;52.00;;;;;;5110475;28;20709;-57
2021/09/14 10:45:56;;;;;;;7.05;2.83;;;15.50;52.10;;;;;;5109696;28;20243;-57
2021/09/14 10:48:27;;;;;;;5.03;2.53;;;15.50;52.10;;;;;;5094750;28;20202;-49
2021/09/14 10:50:57;;;;;;;3.42;2.70;;;15.50;52.10;;;;;;5089050;28;21497;-57
2021/09/14 10:53:29;;;;;;;3.80;2.55;;;15.40;52.00;;;;;;5089259;28;20237;-54
2021/09/14 10:56:00;;;;;;;4.38;2.67;;;15.40;52.10;;;;;;5088920;28;20202;-55
2021/09/14 10:58:39;;;;;;;4.20;2.90;;;15.40;52.10;;;;;;5089049;28;20262;-52
2021/09/14 11:01:09;;;;;;;3.78;2.55;;;15.40;52.10;;;;;;5088938;28;20264;-51
2021/09/14 11:03:39;;;;;;;3.45;2.60;;;15.40;52.10;;;;;;5089292;28;20253;-52
2021/09/14 11:06:10;;;;;;;4.28;2.80;;;15.40;52.10;;;;;;5092868;28;20237;-48
2021/09/14 11:08:40;;;;;;;3.03;2.42;;;15.40;52.10;;;;;;5091910;28;20297;-58
2021/09/14 11:11:11;;;;;;;3.80;2.53;;;15.40;52.10;;;;;;5096876;28;20277;-57
2021/09/14 11:13:41;;;;;;;3.17;2.63;;;15.40;52.10;;;;;;5112181;28;20236;-57
2021/09/14 11:16:11;;;;;;;3.30;2.58;;;15.40;52.10;;;;;;5113234;28;20205;-57
2021/09/14 11:18:41;;;;;;;5.20;3.05;;;15.40;52.10;;;;;;5097281;28;20237;-59
2021/09/14 11:21:11;;;;;;;3.83;2.70;;;15.30;52.00;;;;;;5092388;28;20584;-52
2021/09/14 11:23:40;;;;;;;4.57;2.80;;;15.30;52.10;;;;;;5091279;28;20261;-57
2021/09/14 11:26:12;;;;;;;3.85;2.47;;;15.30;52.20;;;;;;5092552;28;20242;-57
2021/09/14 11:28:42;;;;;;;4.10;2.58;;;15.30;52.20;;;;;;5091992;28;20328;-58
2021/09/14 11:31:12;;;;;;;4.00;2.72;;;15.30;52.20;;;;;;5091577;28;20261;-56
2021/09/14 11:33:44;;;;;;;3.92;2.45;;;15.30;52.20;;;;;;5092740;28;20197;-57
2021/09/14 11:36:13;;;;;;;4.13;2.78;;;15.30;52.20;;;;;;5091566;28;20249;-57
2021/09/14 11:38:43;;;;;;;3.70;2.35;;;15.30;52.20;;;;;;5093226;28;20638;-55
2021/09/14 11:41:14;;;;;;;3.40;2.58;;;15.30;52.20;;;;;;5095906;28;20315;-55
2021/09/14 11:43:46;;;;;;;2.60;2.08;;;15.20;52.10;;;;;;5112783;28;20307;-57
2021/09/14 11:46:16;;;;;;;3.17;2.30;;;15.20;52.10;;;;;;5112737;28;20227;-52
2021/09/14 11:48:56;;;;;;;3.20;2.33;;;15.20;52.10;;;;;;5096310;28;20301;-52
2021/09/14 11:51:26;;;;;;;4.53;2.67;;;15.20;52.10;;;;;;5092340;28;20548;-54
2021/09/14 11:53:56;;;;;;;5.18;2.40;;;15.20;52.10;;;;;;5091934;28;20197;-53
2021/09/14 11:56:29;;;;;;;3.65;2.58;;;15.20;52.10;;;;;;5092125;28;20241;-49
2021/09/14 11:58:58;;;;;;;3.47;2.55;;;15.20;52.10;;;;;;5091461;28;20346;-47
2021/09/14 12:01:32;;;;;;;3.67;2.38;;;15.20;52.20;;;;;;5092023;28;20269;-47
2021/09/14 12:04:02;;;;;;;3.35;2.50;;;15.20;52.30;;;;;;5091517;28;20253;-57
2021/09/14 12:06:32;;;;;;;4.43;2.80;;;15.20;52.20;;;;;;5092332;28;20241;-48
2021/09/14 12:09:02;;;;;;;4.63;2.60;;;15.20;52.20;;;;;;5090471;28;20246;-54
2021/09/14 12:11:33;;;;;;;3.92;2.65;;;15.20;52.20;;;;;;5098001;28;20309;-57
2021/09/14 12:14:04;;;;;;;3.95;2.20;;;15.10;52.10;;;;;;5112352;28;20237;-54
2021/09/14 12:16:37;;;;;;;4.07;2.65;;;15.10;52.10;;;;;;5112066;28;20263;-54
2021/09/14 12:19:07;;;;;;;3.00;2.45;;;15.10;52.20;;;;;;5093634;28;20206;-58
2021/09/14 12:21:36;;;;;;;3.45;2.42;;;15.10;52.10;;;;;;5091092;28;20260;-47
2021/09/14 12:24:06;;;;;;;4.72;2.65;;;15.10;52.10;;;;;;5092208;28;20222;-53
2021/09/14 12:26:40;;;;;;;3.63;2.28;;;15.10;52.10;;;;;;5090455;28;20661;-51
2021/09/14 12:29:10;;;;;;;3.35;2.40;;;15.10;52.20;;;;;;5092019;28;20281;-50
2021/09/14 12:31:40;;;;;;;3.58;2.30;;;15.10;52.20;;;;;;5091644;28;20774;-53
2021/09/14 12:34:10;;;;;;;2.75;2.20;;;15.10;52.20;;;;;;5091580;28;20740;-49
2021/09/14 12:36:41;;;;;;;3.80;2.58;;;15.10;52.20;;;;;;5091664;28;20198;-46
2021/09/14 12:39:10;;;;;;;3.42;2.40;;;15.00;52.20;;;;;;5092181;28;20238;-48
2021/09/14 12:41:41;;;;;;;3.55;2.47;;;15.00;52.20;;;;;;5099497;28;20673;-48
2021/09/14 12:44:11;;;;;;;3.25;2.25;;;15.00;52.20;;;;;;5112156;28;20691;-49
2021/09/14 12:46:41;;;;;;;4.00;2.40;;;15.00;52.20;;;;;;5112350;28;20292;-49
2021/09/14 12:49:11;;;;;;;3.53;2.42;;;15.00;52.20;;;;;;5112381;28;20233;-52
2021/09/14 12:51:40;;;;;;;3.50;2.05;;;15.00;52.20;;;;;;5112547;28;20260;-52
2021/09/14 12:54:10;;;;;;;3.28;2.30;;;15.00;52.20;;;;;;5112209;28;20232;-52
2021/09/14 12:56:41;;;;;;;2.63;2.33;;;15.00;52.20;;;;;;5112715;22;20226;-56
2021/09/14 12:59:11;;;;;;;4.13;2.28;;;15.00;52.20;;;;;;5092182;28;20286;-52
2021/09/14 13:01:41;;;;;;;3.20;2.28;;;15.00;52.20;;;;;;5091974;28;20709;-56
2021/09/14 13:04:10;;;;;;;3.28;2.20;;;15.00;52.20;;;;;;5092339;28;20257;-57
2021/09/14 13:06:40;;;;;;;3.78;2.28;;;15.00;52.20;;;;;;5091551;28;20233;-50
2021/09/14 13:09:10;;;;;;;2.72;2.25;;;14.90;52.20;;;;;;5091217;28;20242;-56
2021/09/14 13:11:41;;;;;;;3.38;2.30;;;14.90;52.20;;;;;;5091421;28;20836;-53
2021/09/14 13:16:57;;;;;;;2.50;2.13;;;14.90;52.20;;;;;;5091485;28;20205;-47
2021/09/14 13:19:26;;;;;;;2.63;2.00;;;14.90;52.20;;;;;;5090613;28;20198;-51
2021/09/14 13:21:56;;;;;;;3.40;2.28;;;14.90;52.20;;;;;;5090942;28;20257;-55
2021/09/14 13:24:26;;;;;;;2.42;2.20;;;14.90;52.20;;;;;;5091289;28;20299;-54
2021/09/14 13:26:59;;;;;;;3.60;2.38;;;14.90;52.20;;;;;;5090391;28;20707;-54
2021/09/14 13:29:28;;;;;;;3.83;2.22;;;14.90;52.20;;;;;;5091412;28;20220;-49
2021/09/14 13:31:58;;;;;;;3.22;1.92;;;14.90;52.20;;;;;;5091409;28;20253;-46
2021/09/14 13:34:28;;;;;;;2.55;2.20;;;14.80;52.20;;;;;;5091157;28;20242;-49
2021/09/14 13:36:58;;;;;;;5.03;2.70;;;14.80;52.20;;;;;;5091633;28;20304;-47
2021/09/14 13:39:27;;;;;;;3.00;2.40;;;14.80;52.20;;;;;;5091316;28;20262;-50
2021/09/14 13:41:58;;;;;;;3.60;2.40;;;14.80;52.20;;;;;;5091023;28;20268;-54
2021/09/14 13:47:14;;;;;;;2.88;2.50;;;14.80;52.20;;;;;;5091448;28;20272;-56
2021/09/14 13:49:44;;;;;;;3.40;2.40;;;14.80;52.20;;;;;;5090307;28;20249;-56